createdAt,value
2018-06-01T00:02:18.891Z,14.40
2018-06-01T00:04:46.465Z,14.67
2018-06-01T00:07:14.008Z,12.60
2018-06-01T00:09:41.581Z,16.73
2018-06-01T00:12:09.121Z,10.47
2018-06-01T00:14:36.689Z,10.77
2018-06-01T00:17:04.231Z,11.63
2018-06-01T00:19:31.797Z,12.63
2018-06-01T00:21:59.337Z,13.60
2018-06-01T00:24:26.914Z,10.37
2018-06-01T00:26:54.462Z,10.93
2018-06-01T00:29:22.030Z,11.97
2018-06-01T00:31:49.566Z,18.93
2018-06-01T00:34:17.151Z,8.37
2018-06-01T00:36:44.696Z,9.70
2018-06-01T00:39:12.273Z,14.30
2018-06-01T00:41:39.815Z,12.43
2018-06-01T00:44:07.374Z,12.40
2018-06-01T00:46:34.925Z,14.00
2018-06-01T00:49:03.258Z,11.70
2018-06-01T00:51:30.811Z,16.47
2018-06-01T00:53:58.377Z,17.57
2018-06-01T00:56:25.913Z,13.13
2018-06-01T00:58:53.479Z,10.80
2018-06-01T01:01:21.026Z,10.33
2018-06-01T01:03:48.599Z,12.00
2018-06-01T01:06:16.140Z,17.00
2018-06-01T01:08:43.694Z,10.00
2018-06-01T01:11:11.236Z,10.53
2018-06-01T01:13:38.818Z,13.47
2018-06-01T01:16:06.385Z,15.10
2018-06-01T01:18:33.946Z,15.73
2018-06-01T01:21:01.497Z,10.50
2018-06-01T01:23:29.037Z,11.60
2018-06-01T01:25:57.368Z,11.30
2018-06-01T01:28:26.125Z,11.97
2018-06-01T01:30:53.684Z,11.43
2018-06-01T01:33:21.235Z,15.03
2018-06-01T01:35:48.804Z,12.87
2018-06-01T01:38:16.356Z,16.83
2018-06-01T01:40:43.940Z,12.50
2018-06-01T01:43:11.497Z,12.00
2018-06-01T01:45:39.053Z,12.77
2018-06-01T01:48:06.602Z,11.47
2018-06-01T01:50:34.773Z,19.37
2018-06-01T01:53:02.314Z,19.13
2018-06-01T01:55:30.645Z,15.37
2018-06-01T01:57:58.178Z,17.23
2018-06-01T02:00:25.753Z,16.23
2018-06-01T02:02:53.306Z,14.13
2018-06-01T02:05:20.877Z,13.00
2018-06-01T02:07:48.409Z,12.80
2018-06-01T02:10:15.971Z,13.80
2018-06-01T02:12:43.514Z,12.63
2018-06-01T02:15:11.844Z,12.90
2018-06-01T02:17:39.397Z,15.20
2018-06-01T02:20:06.960Z,14.50
2018-06-01T02:22:34.505Z,13.70
2018-06-01T02:25:02.060Z,9.93
2018-06-01T02:27:29.595Z,12.47
2018-06-01T02:29:57.921Z,14.40
2018-06-01T02:32:25.472Z,13.07
2018-06-01T02:34:53.034Z,13.20
2018-06-01T02:37:20.572Z,12.97
2018-06-01T02:39:48.140Z,12.90
2018-06-01T02:42:15.668Z,10.90
2018-06-01T02:44:44.001Z,14.10
2018-06-01T02:47:11.545Z,21.00
2018-06-01T02:49:39.120Z,15.90
2018-06-01T02:52:06.657Z,14.20
2018-06-01T02:54:34.218Z,13.60
2018-06-01T02:57:01.758Z,14.03
2018-06-01T02:59:29.333Z,17.13
2018-06-01T03:01:56.877Z,11.67
2018-06-01T03:04:24.440Z,13.50
2018-06-01T03:07:11.101Z,13.10
2018-06-01T03:09:38.657Z,12.33
2018-06-01T03:12:06.205Z,19.30
2018-06-01T03:14:33.789Z,16.63
2018-06-01T03:17:01.342Z,15.57
2018-06-01T03:19:28.917Z,14.43
2018-06-01T03:21:57.233Z,15.77
2018-06-01T03:24:24.829Z,11.47
2018-06-01T03:26:52.372Z,13.67
2018-06-01T03:29:19.944Z,15.60
2018-06-01T03:31:47.484Z,15.70
2018-06-01T03:34:15.066Z,15.33
2018-06-01T03:36:42.611Z,15.90
2018-06-01T03:39:10.189Z,12.17
2018-06-01T03:41:37.734Z,18.70
2018-06-01T03:44:05.280Z,12.50
2018-06-01T03:46:32.834Z,16.53
2018-06-01T03:49:00.376Z,14.03
2018-06-01T03:51:27.948Z,18.40
2018-06-01T03:53:55.504Z,16.80
2018-06-01T03:56:23.070Z,14.13
2018-06-01T03:58:50.637Z,16.73
2018-06-01T04:01:18.206Z,18.80
2018-06-01T04:03:45.753Z,15.83
2018-06-01T04:06:13.322Z,14.93
2018-06-01T04:08:40.864Z,14.03
2018-06-01T04:11:08.429Z,13.67
2018-06-01T04:13:35.985Z,12.43
2018-06-01T04:16:03.541Z,10.37
2018-06-01T04:18:31.090Z,11.50
2018-06-01T04:20:58.659Z,9.93
2018-06-01T04:23:26.196Z,13.80
2018-06-01T04:25:57.288Z,9.10
2018-06-01T04:28:24.841Z,11.53
2018-06-01T04:30:52.404Z,10.47
2018-06-01T04:33:20.005Z,13.80
2018-06-01T04:35:47.577Z,9.87
2018-06-01T04:38:15.905Z,9.87
2018-06-01T04:40:43.473Z,9.40
2018-06-01T04:43:11.013Z,9.67
2018-06-01T04:45:38.592Z,10.57
2018-06-01T04:48:06.125Z,10.27
2018-06-01T04:50:33.702Z,10.33
2018-06-01T04:53:01.240Z,12.93
2018-06-01T04:55:28.811Z,12.23
2018-06-01T04:57:56.371Z,10.63
2018-06-01T05:00:23.938Z,8.90
2018-06-01T05:02:51.473Z,9.07
2018-06-01T05:05:19.801Z,9.17
2018-06-01T05:07:47.376Z,10.77
2018-06-01T05:10:14.966Z,9.60
2018-06-01T05:12:43.280Z,11.13
2018-06-01T05:15:10.857Z,8.80
2018-06-01T05:17:38.400Z,8.30
2018-06-01T05:20:05.971Z,13.27
2018-06-01T05:22:33.516Z,9.67
2018-06-01T05:25:01.093Z,8.53
2018-06-01T05:27:28.653Z,11.30
2018-06-01T05:29:56.206Z,9.27
2018-06-01T05:32:23.786Z,11.23
2018-06-01T05:34:51.329Z,20.93
2018-06-01T05:37:18.908Z,1999.90
2018-06-01T05:39:46.460Z,1237.93
2018-06-01T05:42:14.053Z,1999.90
2018-06-01T05:44:42.377Z,1999.90
2018-06-01T05:47:09.950Z,451.13
2018-06-01T05:49:37.527Z,1999.90
2018-06-01T05:52:05.137Z,1999.90
2018-06-01T05:54:32.707Z,1069.97
2018-06-01T05:57:00.300Z,1320.50
2018-06-01T05:59:27.864Z,101.00
2018-06-01T06:01:55.449Z,93.40
2018-06-01T06:04:23.009Z,755.23
2018-06-01T06:06:50.604Z,419.97
2018-06-01T06:09:18.170Z,655.10
2018-06-01T06:11:45.734Z,485.10
2018-06-01T06:14:13.310Z,186.00
2018-06-01T06:16:41.654Z,1372.63
2018-06-01T06:19:09.204Z,439.23
2018-06-01T06:21:37.580Z,296.57
2018-06-01T06:24:05.882Z,53.97
2018-06-01T06:26:33.470Z,119.00
2018-06-01T06:29:01.018Z,411.17
2018-06-01T06:31:28.635Z,227.80
2018-06-01T06:54:18.743Z,316.87
2018-06-01T06:56:46.301Z,462.80
2018-06-01T06:59:13.869Z,156.60
2018-06-01T07:01:41.418Z,71.70
2018-06-01T07:04:08.989Z,18.27
2018-06-01T07:06:36.532Z,14.87
2018-06-01T07:09:04.104Z,23.37
2018-06-01T07:11:31.854Z,22.37
2018-06-01T07:13:59.432Z,19.10
2018-06-01T07:16:26.981Z,16.23
2018-06-01T07:18:54.560Z,52.40
2018-06-01T07:21:22.109Z,22.67
2018-06-01T07:23:49.673Z,41.90
2018-06-01T07:26:17.274Z,22.40
2018-06-01T07:28:45.584Z,107.53
2018-06-01T07:31:13.136Z,523.93
2018-06-01T07:33:40.709Z,338.73
2018-06-01T07:36:08.281Z,1778.97
2018-06-01T07:38:35.870Z,800.43
2018-06-01T07:41:04.182Z,535.10
2018-06-01T07:43:31.761Z,54.53
2018-06-01T07:45:59.310Z,308.93
2018-06-01T07:48:27.758Z,672.27
2018-06-01T07:50:56.083Z,1477.67
2018-06-01T07:53:23.654Z,161.73
2018-06-01T07:55:51.198Z,335.47
2018-06-01T07:58:18.798Z,1999.90
2018-06-01T08:00:47.119Z,1030.40
2018-06-01T08:03:14.680Z,487.40
2018-06-01T08:05:42.218Z,98.10
2018-06-01T08:08:09.785Z,48.07
2018-06-01T08:10:37.345Z,69.43
2018-06-01T08:13:04.941Z,220.23
2018-06-01T08:15:32.491Z,24.43
2018-06-01T08:18:00.033Z,22.33
2018-06-01T08:20:27.616Z,270.83
2018-06-01T08:22:55.154Z,156.40
2018-06-01T08:25:22.723Z,812.93
2018-06-01T08:27:50.270Z,133.20
2018-06-01T08:30:17.841Z,727.97
2018-06-01T08:32:45.389Z,102.67
2018-06-01T08:35:12.964Z,86.10
2018-06-01T08:37:40.512Z,23.40
2018-06-01T08:40:08.077Z,11.33
2018-06-01T08:42:35.640Z,62.37
2018-06-01T08:45:03.260Z,597.20
2018-06-01T08:47:31.650Z,702.13
2018-06-01T08:50:00.001Z,57.03
2018-06-01T08:52:27.599Z,249.57
2018-06-01T08:54:55.175Z,157.40
2018-06-01T08:57:22.751Z,177.53
2018-06-01T08:59:50.342Z,398.13
2018-06-01T09:02:17.909Z,210.03
2018-06-01T09:04:45.506Z,196.37
2018-06-01T09:07:13.049Z,129.27
2018-06-01T09:09:41.390Z,14.23
2018-06-01T09:12:08.937Z,86.37
2018-06-01T09:14:36.501Z,14.20
2018-06-01T09:17:04.053Z,16.47
2018-06-01T09:19:31.636Z,29.87
2018-06-01T09:21:59.189Z,53.63
2018-06-01T09:24:26.761Z,28.93
2018-06-01T09:26:54.296Z,35.23
2018-06-01T09:29:21.879Z,279.27
2018-06-01T09:31:49.446Z,267.83
2018-06-01T09:34:17.037Z,195.60
2018-06-01T09:36:45.379Z,257.97
2018-06-01T09:39:12.935Z,1043.27
2018-06-01T09:41:41.740Z,291.03
2018-06-01T09:44:09.289Z,187.07
2018-06-01T09:46:36.913Z,52.13
2018-06-01T09:49:05.212Z,182.47
2018-06-01T09:51:32.779Z,523.60
2018-06-01T09:54:00.336Z,83.37
2018-06-01T09:56:27.951Z,59.20
2018-06-01T09:58:55.524Z,17.93
2018-06-01T10:01:29.068Z,16.90
2018-06-01T10:03:56.615Z,8.07
2018-06-01T10:06:24.184Z,9.87
2018-06-01T10:08:51.729Z,11.40
2018-06-01T10:11:19.300Z,10.20
2018-06-01T10:13:46.844Z,8.00
2018-06-01T10:16:14.420Z,11.07
2018-06-01T10:18:41.962Z,6.47
2018-06-01T10:21:15.170Z,6.17
2018-06-01T10:23:42.734Z,7.00
2018-06-01T10:26:10.288Z,7.13
2018-06-01T10:28:37.846Z,9.33
2018-06-01T10:31:05.446Z,13.50
2018-06-01T10:33:33.746Z,9.93
2018-06-01T10:36:01.325Z,9.00
2018-06-01T10:38:28.911Z,8.77
2018-06-01T10:40:56.501Z,74.30
2018-06-01T10:43:24.830Z,114.67
2018-06-01T10:45:52.374Z,62.37
2018-06-01T10:48:19.942Z,327.70
2018-06-01T10:50:47.476Z,88.17
2018-06-01T10:53:15.058Z,59.70
2018-06-01T10:55:42.609Z,49.87
2018-06-01T10:58:10.177Z,21.93
2018-06-01T11:00:37.720Z,13.47
2018-06-01T11:03:05.313Z,642.27
2018-06-01T11:05:32.861Z,356.90
2018-06-01T11:08:00.495Z,22.50
2018-06-01T11:10:28.037Z,75.20
2018-06-01T11:12:56.386Z,31.13
2018-06-01T11:15:23.929Z,33.67
2018-06-01T11:17:52.430Z,28.33
2018-06-01T11:20:19.993Z,12.00
2018-06-01T11:22:47.554Z,16.40
2018-06-01T11:25:15.106Z,127.43
2018-06-01T11:27:42.713Z,37.10
2018-06-01T11:30:10.274Z,9.60
2018-06-01T11:32:38.609Z,12.93
2018-06-01T11:35:06.151Z,9.40
2018-06-01T11:37:33.722Z,7.47
2018-06-01T11:40:01.269Z,14.30
2018-06-01T11:42:28.841Z,16.23
2018-06-01T11:44:56.382Z,9.47
2018-06-01T11:47:23.945Z,9.30
2018-06-01T11:49:51.485Z,9.53
2018-06-01T11:52:19.069Z,12.63
2018-06-01T11:54:46.606Z,10.93
2018-06-01T11:57:14.180Z,12.40
2018-06-01T11:59:41.733Z,13.40
2018-06-01T12:02:09.325Z,11.63
2018-06-01T12:04:36.874Z,11.53
2018-06-01T12:07:04.472Z,8.30
2018-06-01T12:09:32.026Z,9.00
2018-06-01T12:11:59.613Z,9.67
2018-06-01T12:14:27.931Z,9.00
2018-06-01T12:16:55.505Z,19.30
2018-06-01T12:19:23.045Z,5.10
2018-06-01T12:21:50.622Z,5.63
2018-06-01T12:24:18.176Z,4.73
2018-06-01T12:26:45.753Z,5.07
2018-06-01T12:29:13.378Z,4.03
2018-06-01T12:31:40.902Z,4.27
2018-06-01T12:34:09.222Z,7.80
2018-06-01T12:36:36.800Z,3.83
2018-06-01T12:39:04.333Z,7.40
2018-06-01T12:41:31.911Z,6.00
2018-06-01T12:43:59.451Z,5.60
2018-06-01T12:46:27.085Z,86.70
2018-06-01T12:48:55.412Z,4.00
2018-06-01T12:51:22.946Z,4.90
2018-06-01T12:53:50.506Z,5.47
2018-06-01T12:56:18.041Z,7.03
2018-06-01T12:58:46.388Z,11.43
2018-06-01T13:01:13.945Z,6.60
2018-06-01T13:03:41.522Z,62.43
2018-06-01T13:06:09.079Z,9.80
2018-06-01T13:08:36.656Z,5.17
2018-06-01T13:11:04.960Z,9.60
2018-06-01T13:13:32.518Z,5.70
2018-06-01T13:16:00.071Z,6.47
2018-06-01T13:18:27.699Z,27.83
2018-06-01T13:20:55.248Z,12.13
2018-06-01T13:23:22.844Z,8.53
2018-06-01T13:25:51.155Z,5.00
2018-06-01T13:28:18.713Z,9.30
2018-06-01T13:30:46.258Z,3.70
2018-06-01T13:33:13.890Z,3.33
2018-06-01T13:35:42.201Z,3.70
2018-06-01T13:38:09.806Z,8.80
2018-06-01T13:40:37.376Z,4.27
2018-06-01T13:43:04.966Z,2.70
2018-06-01T13:45:33.267Z,2.30
2018-06-01T13:48:00.841Z,2.60
2018-06-01T13:50:28.410Z,4.13
2018-06-01T13:52:56.001Z,56.07
2018-06-01T13:55:23.565Z,3.17
2018-06-01T13:57:51.922Z,8.43
2018-06-01T14:00:19.478Z,22.97
2018-06-01T14:02:47.042Z,10.80
2018-06-01T14:05:14.587Z,3.80
2018-06-01T14:07:42.182Z,3.00
2018-06-01T14:10:09.766Z,4.10
2018-06-01T14:12:37.367Z,3.10
2018-06-01T14:15:04.910Z,3.23
2018-06-01T14:17:32.470Z,2.50
2018-06-01T14:20:00.039Z,2.83
2018-06-01T14:22:27.618Z,3.23
2018-06-01T14:24:55.176Z,3.20
2018-06-01T14:27:22.737Z,4.50
2018-06-01T14:29:50.290Z,3.00
2018-06-01T14:32:17.861Z,3.57
2018-06-01T14:34:45.396Z,3.27
2018-06-01T14:37:12.961Z,9.40
2018-06-01T14:39:40.505Z,3.83
2018-06-01T14:42:08.082Z,3.03
2018-06-01T14:44:36.382Z,4.63
2018-06-01T14:47:03.978Z,4.00
2018-06-01T14:49:32.309Z,3.77
2018-06-01T14:51:59.882Z,4.10
2018-06-01T14:54:27.431Z,4.30
2018-06-01T14:56:55.016Z,4.60
2018-06-01T14:59:22.608Z,3.60
2018-06-01T15:01:50.220Z,3.40
2018-06-01T15:04:17.768Z,4.23
2018-06-01T15:06:45.324Z,5.20
2018-06-01T15:09:12.891Z,4.60
2018-06-01T15:11:40.437Z,5.13
2018-06-01T15:14:08.883Z,4.80
2018-06-01T15:16:37.195Z,4.60
2018-06-01T15:19:04.778Z,5.90
2018-06-01T15:21:32.331Z,4.47
2018-06-01T15:23:59.944Z,3.83
2018-06-01T15:26:27.490Z,4.53
2018-06-01T15:28:55.827Z,5.80
2018-06-01T15:31:23.382Z,4.53
2018-06-01T15:33:51.004Z,5.40
2018-06-01T15:36:18.550Z,5.30
2018-06-01T15:38:46.897Z,4.20
2018-06-01T15:41:14.452Z,6.97
2018-06-01T15:43:42.026Z,4.90
2018-06-01T15:46:09.597Z,5.50
2018-06-01T15:48:37.186Z,4.93
2018-06-01T15:51:04.760Z,4.67
2018-06-01T15:53:32.334Z,7.17
2018-06-01T15:55:59.905Z,6.27
2018-06-01T15:58:27.489Z,3.97
2018-06-01T16:00:55.069Z,5.00
2018-06-01T16:05:58.125Z,6.73
2018-06-01T16:08:25.713Z,6.20
2018-06-01T16:10:53.282Z,6.00
2018-06-01T16:13:20.878Z,6.60
2018-06-01T16:15:48.432Z,6.93
2018-06-01T16:18:16.006Z,6.00
2018-06-01T16:20:43.548Z,7.60
2018-06-01T16:23:11.118Z,9.13
2018-06-01T16:25:38.695Z,9.10
2018-06-01T16:28:06.306Z,7.60
2018-06-01T16:30:33.882Z,11.23
2018-06-01T16:33:02.229Z,5.57
2018-06-01T16:35:29.791Z,6.13
2018-06-01T16:37:57.384Z,6.30
2018-06-01T16:40:25.717Z,5.80
2018-06-01T16:42:53.299Z,5.73
2018-06-01T16:45:20.840Z,6.17
2018-06-01T16:47:48.447Z,6.27
2018-06-01T16:50:16.768Z,8.10
2018-06-01T16:52:44.367Z,5.77
2018-06-01T16:55:12.713Z,7.53
2018-06-01T16:57:40.317Z,8.43
2018-06-01T17:00:08.639Z,6.40
2018-06-01T17:02:36.206Z,6.40
2018-06-01T17:05:03.765Z,5.40
2018-06-01T17:07:31.387Z,6.43
2018-06-01T17:09:58.986Z,5.30
2018-06-01T17:12:26.548Z,6.77
2018-06-01T17:14:54.164Z,6.40
2018-06-01T17:17:22.481Z,10.60
2018-06-01T17:19:50.066Z,9.33
2018-06-01T17:22:17.663Z,9.80
2018-06-01T17:24:46.016Z,4.30
2018-06-01T17:27:14.337Z,5.47
2018-06-01T17:29:41.923Z,6.23
2018-06-01T17:32:09.477Z,7.03
2018-06-01T17:34:37.049Z,4.47
2018-06-01T17:37:04.609Z,6.53
2018-06-01T17:39:32.197Z,7.73
2018-06-01T17:41:59.747Z,6.50
2018-06-01T17:44:27.329Z,5.83
2018-06-01T17:46:55.655Z,6.47
2018-06-01T17:49:23.246Z,10.27
2018-06-01T17:51:50.821Z,12.20
2018-06-01T17:54:18.403Z,8.90
2018-06-01T17:56:46.718Z,7.40
2018-06-01T17:59:14.303Z,11.47
2018-06-01T18:01:41.860Z,8.60
2018-06-01T18:04:09.421Z,22.13
2018-06-01T18:06:36.990Z,9.67
2018-06-01T18:09:05.351Z,9.57
2018-06-01T18:11:32.897Z,18.53
2018-06-01T18:14:00.468Z,13.03
2018-06-01T18:16:28.015Z,12.67
2018-06-01T18:18:55.608Z,9.43
2018-06-01T18:21:23.164Z,9.17
2018-06-01T18:23:50.747Z,10.60
2018-06-01T18:26:19.080Z,10.00
2018-06-01T18:28:46.664Z,9.63
2018-06-01T18:31:14.212Z,9.70
2018-06-01T18:33:41.808Z,10.00
2018-06-01T18:36:10.259Z,15.83
2018-06-01T18:38:37.861Z,8.73
2018-06-01T18:41:05.462Z,8.47
2018-06-01T18:43:33.085Z,10.80
2018-06-01T18:46:01.423Z,7.43
2018-06-01T18:48:29.046Z,10.90
2018-06-01T18:50:56.621Z,11.80
2018-06-01T18:53:24.228Z,9.63
2018-06-01T18:55:52.580Z,17.47
2018-06-01T18:58:20.151Z,10.03
2018-06-01T19:00:47.692Z,9.87
2018-06-01T19:03:15.257Z,13.80
2018-06-01T19:05:42.825Z,10.10
2018-06-01T19:08:10.457Z,8.17
2018-06-01T19:10:38.001Z,13.07
2018-06-01T19:13:05.581Z,10.27
2018-06-01T19:15:33.152Z,12.40
2018-06-01T19:18:00.726Z,15.03
2018-06-01T19:20:28.275Z,11.80
2018-06-01T19:22:55.818Z,11.63
2018-06-01T19:25:23.397Z,13.60
2018-06-01T19:27:50.958Z,15.73
2018-06-01T19:30:18.583Z,12.67
2018-06-01T19:32:46.768Z,14.43
2018-06-01T19:35:14.373Z,12.80
2018-06-01T19:37:42.284Z,15.43
2018-06-01T19:40:10.052Z,18.97
2018-06-01T19:42:37.611Z,12.23
2018-06-01T19:45:05.553Z,15.20
2018-06-01T19:47:33.929Z,19.20
2018-06-01T19:50:01.524Z,16.27
2018-06-01T19:52:29.069Z,14.60
2018-06-01T19:54:57.416Z,12.67
2018-06-01T19:57:25.100Z,14.57
2018-06-01T19:59:52.685Z,13.47
2018-06-01T20:02:20.489Z,11.50
2018-06-01T20:04:48.454Z,9.80
2018-06-01T20:07:17.050Z,10.73
2018-06-01T20:09:44.800Z,11.63
2018-06-01T20:12:12.752Z,11.80
2018-06-01T20:14:41.280Z,13.23
2018-06-01T20:17:09.628Z,12.90
2018-06-01T20:19:37.613Z,11.43
2018-06-01T20:22:06.255Z,13.90
2018-06-01T20:24:34.146Z,12.07
2018-06-01T20:27:02.059Z,10.10
2018-06-01T20:29:29.696Z,11.30
2018-06-01T20:31:58.248Z,9.73
2018-06-01T20:34:26.225Z,12.27
2018-06-01T20:36:54.110Z,12.23
2018-06-01T20:39:22.653Z,8.27
2018-06-01T20:41:50.587Z,12.93
2018-06-01T20:44:18.198Z,12.50
2018-06-01T20:46:46.046Z,18.10
2018-06-01T20:49:13.872Z,13.47
2018-06-01T20:51:42.376Z,19.07
2018-06-01T20:54:09.972Z,11.77
2018-06-01T20:56:37.555Z,14.97
2018-06-01T20:59:05.231Z,16.00
2018-06-01T21:01:32.772Z,13.40
2018-06-01T21:04:00.679Z,20.53
2018-06-01T21:06:28.611Z,15.13
2018-06-01T21:08:56.561Z,12.47
2018-06-01T21:11:24.450Z,17.40
2018-06-01T21:13:53.200Z,11.90
2018-06-01T21:16:20.917Z,15.90
2018-06-01T21:18:49.285Z,18.57
2018-06-01T21:21:17.152Z,14.13
2018-06-01T21:23:45.778Z,19.63
2018-06-01T21:26:13.353Z,12.53
2018-06-01T21:28:41.075Z,15.43
2018-06-01T21:31:09.652Z,17.70
2018-06-01T21:33:37.571Z,16.20
2018-06-01T21:36:05.137Z,16.97
2018-06-01T21:38:33.010Z,19.03
2018-06-01T21:41:00.984Z,22.00
2018-06-01T21:43:28.811Z,17.27
2018-06-01T21:45:56.563Z,19.47
2018-06-01T21:48:24.151Z,15.03
2018-06-01T21:50:52.077Z,15.07
2018-06-01T21:53:19.934Z,17.03
2018-06-01T21:55:47.517Z,14.33
2018-06-01T21:58:15.710Z,24.43
2018-06-01T22:00:43.747Z,19.77
2018-06-01T22:03:12.255Z,24.17
2018-06-01T22:05:40.189Z,21.60
2018-06-01T22:08:07.844Z,20.83
2018-06-01T22:10:35.621Z,17.70
2018-06-01T22:13:03.509Z,19.70
2018-06-01T22:15:31.256Z,20.03
2018-06-01T22:17:58.966Z,14.67
2018-06-01T22:20:26.541Z,22.07
2018-06-01T22:22:54.091Z,18.97
2018-06-01T22:25:21.663Z,17.90
2018-06-01T22:27:49.218Z,25.17
2018-06-01T22:30:16.784Z,17.37
2018-06-01T22:32:44.326Z,16.00
2018-06-01T22:35:12.676Z,17.57
2018-06-01T22:37:40.233Z,22.90
2018-06-01T22:40:07.805Z,19.23
2018-06-01T22:42:36.112Z,20.33
2018-06-01T22:45:03.695Z,17.10
2018-06-01T22:47:31.241Z,23.17
2018-06-01T22:49:58.813Z,16.60
2018-06-01T22:52:26.365Z,19.80
2018-06-01T22:54:53.943Z,17.90
2018-06-01T22:57:21.494Z,21.57
2018-06-01T22:59:49.069Z,21.37
2018-06-01T23:02:16.645Z,22.10
2018-06-01T23:04:44.223Z,18.40
2018-06-01T23:07:11.777Z,18.23
2018-06-01T23:09:39.353Z,20.23
2018-06-01T23:12:07.679Z,23.30
2018-06-01T23:14:35.311Z,23.87
2018-06-01T23:17:02.824Z,21.70
2018-06-01T23:19:30.393Z,22.60
2018-06-01T23:21:57.964Z,23.30
2018-06-01T23:24:26.305Z,28.47
2018-06-01T23:26:53.849Z,27.23
2018-06-01T23:29:21.441Z,24.70
2018-06-01T23:31:48.980Z,28.70
2018-06-01T23:34:16.556Z,27.33
2018-06-01T23:36:44.101Z,131.07
2018-06-01T23:39:11.829Z,263.90
2018-06-01T23:41:39.389Z,49.87
2018-06-01T23:44:06.967Z,49.73
2018-06-01T23:46:34.523Z,28.70
2018-06-01T23:49:02.073Z,24.37
2018-06-01T23:51:29.993Z,27.27
2018-06-01T23:53:57.542Z,22.60
2018-06-01T23:56:25.122Z,22.97
2018-06-01T23:58:52.659Z,23.37
